Time;durP1;ratioP1;P1;durP2;ratioP2;P2;SDS_P1;SDS_P2;PMS_P1;PMS_P2;Temp;Humidity;BMP_temperature;BMP_pressure;BME280_temperature;BME280_humidity;BME280_pressure;Samples;Min_cycle;Max_cycle;Signal;HPM_P1;HPM_P2
2022/07/31 00:00:08;;;;;;;;;;;;;;;;;;2140429;27;19934;-43
2022/07/31 00:01:09;;;;;;;;;;;;;;;;;;2140548;27;19923;-43
2022/07/31 00:02:10;;;;;;;;;;;;;;;;;;2140427;27;20337;-44
2022/07/31 00:03:11;;;;;;;;;;;;;;;;;;2140430;27;19929;-43
2022/07/31 00:04:12;;;;;;;;;;;;;;;;;;2140453;27;19974;-43
2022/07/31 00:05:13;;;;;;;;;;;;;;;;;;2140529;27;19991;-44
2022/07/31 00:06:13;;;;;;;;;;;;;;;;;;2140204;27;19923;-43
2022/07/31 00:07:14;;;;;;;;;;;;;;;;;;2140583;27;19952;-43
2022/07/31 00:08:15;;;;;;;;;;;;;;;;;;2140519;27;20017;-43
2022/07/31 00:09:16;;;;;;;;;;;;;;;;;;2140416;27;20385;-44
2022/07/31 00:10:37;;;;;;;;;;;;;;;;;;2140337;27;20417;-43
2022/07/31 00:11:38;;;;;;;;;;;;;;;;;;2134143;27;19934;-43
2022/07/31 00:12:38;;;;;;;;;;;;;;;;;;2131906;27;19948;-47
2022/07/31 00:13:39;;;;;;;;;;;;;;;;;;2131898;27;19977;-42
2022/07/31 00:14:58;;;;;;;;;;;;;;;;;;2131883;27;19923;-42
2022/07/31 00:15:59;;;;;;;;;;;;;;;;;;2131660;27;20006;-42
2022/07/31 00:17:00;;;;;;;;;;;;;;;;;;2131696;27;20184;-42
2022/07/31 00:18:01;;;;;;;;;;;;;;;;;;2131585;27;20303;-42
2022/07/31 00:19:02;;;;;;;;;;;;;;;;;;2131899;27;19923;-42
2022/07/31 00:20:03;;;;;;;;;;;;;;;;;;2131630;27;19923;-43
2022/07/31 00:21:04;;;;;;;;;;;;;;;;;;2131984;27;19954;-45
2022/07/31 00:22:05;;;;;;;;;;;;;;;;;;2131716;27;19923;-46
2022/07/31 00:23:06;;;;;;;;;;;;;;;;;;2131651;27;19930;-44
2022/07/31 00:24:06;;;;;;;;;;;;;;;;;;2131702;27;19973;-44
2022/07/31 00:25:07;;;;;;;;;;;;;;;;;;2131663;27;19923;-44
2022/07/31 00:26:08;;;;;;;;;;;;;;;;;;2131555;27;19962;-45
2022/07/31 00:27:09;;;;;;;;;;;;;;;;;;2131737;27;20010;-44
2022/07/31 00:28:10;;;;;;;;;;;;;;;;;;2131629;27;19923;-45
2022/07/31 00:29:11;;;;;;;;;;;;;;;;;;2131587;27;19933;-43
2022/07/31 00:30:12;;;;;;;;;;;;;;;;;;2131736;27;20446;-45
2022/07/31 00:31:13;;;;;;;;;;;;;;;;;;2131655;27;20122;-44
2022/07/31 00:32:14;;;;;;;;;;;;;;;;;;2131531;27;19956;-44
2022/07/31 00:33:15;;;;;;;;;;;;;;;;;;2131628;27;19930;-44
2022/07/31 00:34:15;;;;;;;;;;;;;;;;;;2131550;27;19999;-44
2022/07/31 00:35:16;;;;;;;;;;;;;;;;;;2131699;27;19930;-44
2022/07/31 00:36:17;;;;;;;;;;;;;;;;;;2131604;27;19936;-44
2022/07/31 00:37:18;;;;;;;;;;;;;;;;;;2131747;27;19974;-44
2022/07/31 00:38:19;;;;;;;;;;;;;;;;;;2131551;27;20399;-44
2022/07/31 00:39:29;;;;;;;;;;;;;;;;;;2131796;27;20002;-44
2022/07/31 00:40:30;;;;;;;;;;;;;;;;;;2131578;27;20337;-45
2022/07/31 00:41:31;;;;;;;;;;;;;;;;;;2131545;27;19927;-45
2022/07/31 00:42:32;;;;;;;;;;;;;;;;;;2131547;27;20153;-44
2022/07/31 00:43:33;;;;;;;;;;;;;;;;;;2131716;27;19967;-44
2022/07/31 00:44:34;;;;;;;;;;;;;;;;;;2131515;27;20060;-45
2022/07/31 00:45:35;;;;;;;;;;;;;;;;;;2131465;27;19972;-44
2022/07/31 00:46:35;;;;;;;;;;;;;;;;;;2131833;27;19979;-44
2022/07/31 00:47:36;;;;;;;;;;;;;;;;;;2132990;27;19946;-44
2022/07/31 00:48:37;;;;;;;;;;;;;;;;;;2133096;27;19923;-47
2022/07/31 00:49:38;;;;;;;;;;;;;;;;;;2133007;27;19923;-44
2022/07/31 00:50:39;;;;;;;;;;;;;;;;;;2133144;27;20006;-43
2022/07/31 00:51:40;;;;;;;;;;;;;;;;;;2132989;27;20427;-44
2022/07/31 00:52:40;;;;;;;;;;;;;;;;;;2133193;27;19966;-44
2022/07/31 00:53:41;;;;;;;;;;;;;;;;;;2137742;27;20302;-44
2022/07/31 00:54:42;;;;;;;;;;;;;;;;;;2141616;27;20001;-44
2022/07/31 00:55:43;;;;;;;;;;;;;;;;;;2141576;27;20034;-43
2022/07/31 00:56:51;;;;;;;;;;;;;;;;;;2141707;27;19930;-45
2022/07/31 00:57:52;;;;;;;;;;;;;;;;;;2141683;27;19923;-44
2022/07/31 00:58:54;;;;;;;;;;;;;;;;;;2141639;27;19961;-44
2022/07/31 00:59:55;;;;;;;;;;;;;;;;;;2141618;27;20431;-45
2022/07/31 01:00:55;;;;;;;;;;;;;;;;;;2141844;27;19958;-42
2022/07/31 01:01:56;;;;;;;;;;;;;;;;;;2141709;27;19923;-44
2022/07/31 01:02:57;;;;;;;;;;;;;;;;;;2141597;27;20298;-44
2022/07/31 01:03:58;;;;;;;;;;;;;;;;;;2141715;27;19923;-44
2022/07/31 01:04:59;;;;;;;;;;;;;;;;;;2141586;27;19974;-43
2022/07/31 01:06:00;;;;;;;;;;;;;;;;;;2141562;27;20062;-44
2022/07/31 01:07:01;;;;;;;;;;;;;;;;;;2141615;27;19923;-43
2022/07/31 01:08:02;;;;;;;;;;;;;;;;;;2141673;27;20259;-42
2022/07/31 01:09:03;;;;;;;;;;;;;;;;;;2141583;27;19992;-44
2022/07/31 01:10:04;;;;;;;;;;;;;;;;;;2141516;27;19929;-43
2022/07/31 01:11:05;;;;;;;;;;;;;;;;;;2140104;27;19929;-43
2022/07/31 01:12:06;;;;;;;;;;;;;;;;;;2132938;27;19962;-44
2022/07/31 01:13:07;;;;;;;;;;;;;;;;;;2133031;27;19923;-44
2022/07/31 01:14:08;;;;;;;;;;;;;;;;;;2132964;27;20010;-43
2022/07/31 01:15:09;;;;;;;;;;;;;;;;;;2133008;27;19923;-43
2022/07/31 01:16:10;;;;;;;;;;;;;;;;;;2132907;27;19923;-43
2022/07/31 01:17:10;;;;;;;;;;;;;;;;;;2132910;27;20255;-45
2022/07/31 01:18:11;;;;;;;;;;;;;;;;;;2132858;27;20011;-43
2022/07/31 01:19:12;;;;;;;;;;;;;;;;;;2132926;27;19923;-43
2022/07/31 01:20:13;;;;;;;;;;;;;;;;;;2132819;27;19923;-43
2022/07/31 01:21:14;;;;;;;;;;;;;;;;;;2132737;27;19971;-43
2022/07/31 01:22:15;;;;;;;;;;;;;;;;;;2132837;27;20407;-43
2022/07/31 01:23:35;;;;;;;;;;;;;;;;;;2132840;27;19923;-43
2022/07/31 01:24:36;;;;;;;;;;;;;;;;;;2132819;27;20092;-43
2022/07/31 01:25:38;;;;;;;;;;;;;;;;;;2132777;27;19930;-43
2022/07/31 01:26:38;;;;;;;;;;;;;;;;;;2132929;27;20049;-43
2022/07/31 01:27:39;;;;;;;;;;;;;;;;;;2132947;27;20014;-45
2022/07/31 01:28:50;;;;;;;;;;;;;;;;;;2132908;27;19930;-44
2022/07/31 01:29:52;;;;;;;;;;;;;;;;;;2132764;27;19923;-45
2022/07/31 01:30:53;;;;;;;;;;;;;;;;;;2132918;27;19930;-45
2022/07/31 01:32:11;;;;;;;;;;;;;;;;;;2132814;27;20329;-45
2022/07/31 01:33:12;;;;;;;;;;;;;;;;;;2133108;27;20005;-46
2022/07/31 01:34:13;;;;;;;;;;;;;;;;;;2132853;27;20009;-46
2022/07/31 01:35:13;;;;;;;;;;;;;;;;;;2132776;27;19923;-46
2022/07/31 01:36:14;;;;;;;;;;;;;;;;;;2132705;27;19923;-46
2022/07/31 01:37:15;;;;;;;;;;;;;;;;;;2132932;27;19980;-45
2022/07/31 01:38:16;;;;;;;;;;;;;;;;;;2133068;27;20044;-43
2022/07/31 01:39:17;;;;;;;;;;;;;;;;;;2133024;27;20018;-43
2022/07/31 01:40:18;;;;;;;;;;;;;;;;;;2132784;27;19923;-43
2022/07/31 01:41:19;;;;;;;;;;;;;;;;;;2132669;27;19923;-45
2022/07/31 01:42:20;;;;;;;;;;;;;;;;;;2132689;27;19988;-43
2022/07/31 01:43:21;;;;;;;;;;;;;;;;;;2132777;27;20010;-43
2022/07/31 01:44:22;;;;;;;;;;;;;;;;;;2132843;27;20034;-43
2022/07/31 01:45:23;;;;;;;;;;;;;;;;;;2132717;27;20315;-44
2022/07/31 01:46:24;;;;;;;;;;;;;;;;;;2132734;27;19923;-43
2022/07/31 01:47:26;;;;;;;;;;;;;;;;;;2132856;27;19945;-43
2022/07/31 01:48:27;;;;;;;;;;;;;;;;;;2132644;27;20450;-43
2022/07/31 01:49:28;;;;;;;;;;;;;;;;;;2133404;27;19962;-43
2022/07/31 01:50:29;;;;;;;;;;;;;;;;;;2141271;27;19929;-44
2022/07/31 01:51:44;;;;;;;;;;;;;;;;;;2132550;27;19923;-43
2022/07/31 01:52:45;;;;;;;;;;;;;;;;;;2132630;27;20396;-44
2022/07/31 01:53:45;;;;;;;;;;;;;;;;;;2132792;27;19923;-43
2022/07/31 01:54:46;;;;;;;;;;;;;;;;;;2132510;27;19923;-45
2022/07/31 01:55:47;;;;;;;;;;;;;;;;;;2132768;27;20009;-43
2022/07/31 01:57:03;;;;;;;;;;;;;;;;;;2132693;27;19923;-43
2022/07/31 01:58:04;;;;;;;;;;;;;;;;;;2132114;27;20287;-44
2022/07/31 01:59:05;;;;;;;;;;;;;;;;;;2132687;27;19923;-44
2022/07/31 02:00:20;;;;;;;;;;;;;;;;;;2132850;27;19930;-43
2022/07/31 02:01:34;;;;;;;;;;;;;;;;;;2132543;27;20401;-44
2022/07/31 02:02:35;;;;;;;;;;;;;;;;;;2132688;27;19923;-43
2022/07/31 02:03:36;;;;;;;;;;;;;;;;;;2132603;27;20010;-45
2022/07/31 02:04:45;;;;;;;;;;;;;;;;;;2132777;27;19961;-43
2022/07/31 02:05:46;;;;;;;;;;;;;;;;;;2132514;27;20799;-43
2022/07/31 02:06:47;;;;;;;;;;;;;;;;;;2132621;27;19923;-44
2022/07/31 02:07:49;;;;;;;;;;;;;;;;;;2132551;27;20368;-43
2022/07/31 02:08:49;;;;;;;;;;;;;;;;;;2132636;27;20362;-44
2022/07/31 02:09:50;;;;;;;;;;;;;;;;;;2132565;27;19923;-43
2022/07/31 02:10:58;;;;;;;;;;;;;;;;;;2132749;27;19923;-43
2022/07/31 02:11:59;;;;;;;;;;;;;;;;;;2141228;27;19922;-43
2022/07/31 02:13:01;;;;;;;;;;;;;;;;;;2141137;27;19930;-43
2022/07/31 02:14:02;;;;;;;;;;;;;;;;;;2141320;27;19966;-48
2022/07/31 02:15:04;;;;;;;;;;;;;;;;;;2141035;27;19923;-43
2022/07/31 02:16:05;;;;;;;;;;;;;;;;;;2141135;27;19966;-43
2022/07/31 02:17:06;;;;;;;;;;;;;;;;;;2141123;27;20216;-42
2022/07/31 02:18:06;;;;;;;;;;;;;;;;;;2141112;27;20022;-43
2022/07/31 02:19:08;;;;;;;;;;;;;;;;;;2141163;27;19929;-44
2022/07/31 02:20:08;;;;;;;;;;;;;;;;;;2141314;27;20365;-43
2022/07/31 02:21:09;;;;;;;;;;;;;;;;;;2141244;27;19923;-45
2022/07/31 02:22:10;;;;;;;;;;;;;;;;;;2140968;27;19922;-44
2022/07/31 02:23:11;;;;;;;;;;;;;;;;;;2141203;27;20338;-45
2022/07/31 02:24:12;;;;;;;;;;;;;;;;;;2141073;27;20306;-45
2022/07/31 02:25:13;;;;;;;;;;;;;;;;;;2141565;27;19923;-43
2022/07/31 02:26:14;;;;;;;;;;;;;;;;;;2140960;27;20013;-43
2022/07/31 02:27:15;;;;;;;;;;;;;;;;;;2141220;27;20283;-42
2022/07/31 02:28:36;;;;;;;;;;;;;;;;;;2141071;27;19922;-43
2022/07/31 02:29:37;;;;;;;;;;;;;;;;;;2140966;27;20463;-43
2022/07/31 02:30:38;;;;;;;;;;;;;;;;;;2141115;27;19923;-42
2022/07/31 02:31:40;;;;;;;;;;;;;;;;;;2141051;27;19922;-42
2022/07/31 02:32:41;;;;;;;;;;;;;;;;;;2141076;27;19923;-44
2022/07/31 02:33:41;;;;;;;;;;;;;;;;;;2141377;27;20025;-42
2022/07/31 02:34:43;;;;;;;;;;;;;;;;;;2141187;27;19922;-45
2022/07/31 02:35:44;;;;;;;;;;;;;;;;;;2141295;27;20062;-44
2022/07/31 02:36:45;;;;;;;;;;;;;;;;;;2141122;27;20331;-43
2022/07/31 02:37:46;;;;;;;;;;;;;;;;;;2140995;27;19964;-43
2022/07/31 02:38:47;;;;;;;;;;;;;;;;;;2141111;27;20058;-42
2022/07/31 02:39:48;;;;;;;;;;;;;;;;;;2140951;27;19966;-42
2022/07/31 02:40:49;;;;;;;;;;;;;;;;;;2140995;27;20387;-42
2022/07/31 02:41:49;;;;;;;;;;;;;;;;;;2140909;27;20010;-43
2022/07/31 02:42:50;;;;;;;;;;;;;;;;;;2140932;27;20466;-42
2022/07/31 02:43:51;;;;;;;;;;;;;;;;;;2141247;27;19989;-43
2022/07/31 02:44:52;;;;;;;;;;;;;;;;;;2141095;27;19930;-43
2022/07/31 02:45:53;;;;;;;;;;;;;;;;;;2140985;27;19971;-45
2022/07/31 02:46:54;;;;;;;;;;;;;;;;;;2140614;27;20281;-45
2022/07/31 02:47:54;;;;;;;;;;;;;;;;;;2140955;27;20391;-44
2022/07/31 02:48:56;;;;;;;;;;;;;;;;;;2140908;27;19929;-44
2022/07/31 02:49:56;;;;;;;;;;;;;;;;;;2140782;27;19950;-46
2022/07/31 02:50:57;;;;;;;;;;;;;;;;;;2140942;27;19922;-45
2022/07/31 02:51:58;;;;;;;;;;;;;;;;;;2141142;27;20009;-43
2022/07/31 02:52:59;;;;;;;;;;;;;;;;;;2140752;27;19970;-43
2022/07/31 02:54:00;;;;;;;;;;;;;;;;;;2141300;27;20286;-43
2022/07/31 02:55:01;;;;;;;;;;;;;;;;;;2140956;27;19923;-43
2022/07/31 02:56:03;;;;;;;;;;;;;;;;;;2141231;27;19927;-43
2022/07/31 02:57:04;;;;;;;;;;;;;;;;;;2140955;27;20029;-42
2022/07/31 02:58:04;;;;;;;;;;;;;;;;;;2140798;27;19934;-42
2022/07/31 02:59:06;;;;;;;;;;;;;;;;;;2140838;27;19923;-43
2022/07/31 03:00:06;;;;;;;;;;;;;;;;;;2140758;27;20005;-44
2022/07/31 03:01:07;;;;;;;;;;;;;;;;;;2140760;27;19923;-42
2022/07/31 03:02:08;;;;;;;;;;;;;;;;;;2140958;27;20059;-43
2022/07/31 03:03:09;;;;;;;;;;;;;;;;;;2141273;27;19923;-43
2022/07/31 03:04:11;;;;;;;;;;;;;;;;;;2141287;27;19970;-45
2022/07/31 03:05:12;;;;;;;;;;;;;;;;;;2140883;27;20013;-44
2022/07/31 03:06:13;;;;;;;;;;;;;;;;;;2140613;27;19930;-44
2022/07/31 03:07:16;;;;;;;;;;;;;;;;;;2140960;27;20005;-45
2022/07/31 03:08:17;;;;;;;;;;;;;;;;;;2141042;27;19923;-44
2022/07/31 03:09:18;;;;;;;;;;;;;;;;;;2139957;27;19961;-45
2022/07/31 03:10:19;;;;;;;;;;;;;;;;;;2140665;27;19930;-44
2022/07/31 03:11:20;;;;;;;;;;;;;;;;;;2137378;27;20005;-43
2022/07/31 03:12:21;;;;;;;;;;;;;;;;;;2132195;27;19923;-43
2022/07/31 03:13:21;;;;;;;;;;;;;;;;;;2132021;27;20509;-43
2022/07/31 03:14:22;;;;;;;;;;;;;;;;;;2132049;27;19972;-43
2022/07/31 03:15:23;;;;;;;;;;;;;;;;;;2132181;27;19969;-44
2022/07/31 03:16:24;;;;;;;;;;;;;;;;;;2132258;27;19923;-43
2022/07/31 03:17:25;;;;;;;;;;;;;;;;;;2132104;27;20316;-43
2022/07/31 03:18:38;;;;;;;;;;;;;;;;;;2132732;27;19923;-45
2022/07/31 03:19:39;;;;;;;;;;;;;;;;;;2132194;27;19930;-45
2022/07/31 03:20:40;;;;;;;;;;;;;;;;;;2131920;27;20294;-45
2022/07/31 03:21:41;;;;;;;;;;;;;;;;;;2132079;27;20022;-44
2022/07/31 03:22:42;;;;;;;;;;;;;;;;;;2132030;27;19927;-45
2022/07/31 03:23:43;;;;;;;;;;;;;;;;;;2132232;27;19923;-45
2022/07/31 03:24:44;;;;;;;;;;;;;;;;;;2132025;27;19923;-44
2022/07/31 03:25:44;;;;;;;;;;;;;;;;;;2132200;27;19929;-44
2022/07/31 03:26:45;;;;;;;;;;;;;;;;;;2131941;27;19944;-45
2022/07/31 03:27:47;;;;;;;;;;;;;;;;;;2132082;27;20091;-43
2022/07/31 03:28:56;;;;;;;;;;;;;;;;;;2131958;27;19934;-44
2022/07/31 03:29:56;;;;;;;;;;;;;;;;;;2131942;27;20005;-42
2022/07/31 03:30:57;;;;;;;;;;;;;;;;;;2132230;27;19930;-43
2022/07/31 03:31:58;;;;;;;;;;;;;;;;;;2134372;27;20013;-43
2022/07/31 03:33:02;;;;;;;;;;;;;;;;;;2140923;27;19923;-45
2022/07/31 03:34:03;;;;;;;;;;;;;;;;;;2141013;27;20291;-42
2022/07/31 03:35:04;;;;;;;;;;;;;;;;;;2141106;27;19955;-45
2022/07/31 03:36:04;;;;;;;;;;;;;;;;;;2140573;27;19926;-44
2022/07/31 03:37:05;;;;;;;;;;;;;;;;;;2140586;27;19922;-44
2022/07/31 03:38:06;;;;;;;;;;;;;;;;;;2140638;27;19958;-45
2022/07/31 03:39:27;;;;;;;;;;;;;;;;;;2140534;27;19929;-47
2022/07/31 03:40:28;;;;;;;;;;;;;;;;;;2140455;27;20367;-45
2022/07/31 03:41:29;;;;;;;;;;;;;;;;;;2140697;27;19923;-45
2022/07/31 03:42:30;;;;;;;;;;;;;;;;;;2140536;27;19922;-44
2022/07/31 03:43:31;;;;;;;;;;;;;;;;;;2140729;27;19934;-45
2022/07/31 03:44:44;;;;;;;;;;;;;;;;;;2140793;27;19923;-43
2022/07/31 03:45:45;;;;;;;;;;;;;;;;;;2140475;27;20376;-43
2022/07/31 03:46:46;;;;;;;;;;;;;;;;;;2140500;27;20180;-44
2022/07/31 03:47:47;;;;;;;;;;;;;;;;;;2140414;27;20374;-42
2022/07/31 03:48:50;;;;;;;;;;;;;;;;;;2140646;27;19961;-43
2022/07/31 03:49:52;;;;;;;;;;;;;;;;;;2140902;27;19923;-43
2022/07/31 03:50:53;;;;;;;;;;;;;;;;;;2140745;27;20005;-45
2022/07/31 03:51:54;;;;;;;;;;;;;;;;;;2140630;27;19923;-43
2022/07/31 03:52:55;;;;;;;;;;;;;;;;;;2140698;27;20001;-43
2022/07/31 03:53:56;;;;;;;;;;;;;;;;;;2140317;27;20419;-43
2022/07/31 03:54:59;;;;;;;;;;;;;;;;;;2140960;27;19968;-45
2022/07/31 03:56:00;;;;;;;;;;;;;;;;;;2140899;27;19929;-44
2022/07/31 03:57:01;;;;;;;;;;;;;;;;;;2140455;27;19923;-44
2022/07/31 03:58:02;;;;;;;;;;;;;;;;;;2140807;27;19934;-43
2022/07/31 03:59:03;;;;;;;;;;;;;;;;;;2141001;27;20196;-42
2022/07/31 04:00:04;;;;;;;;;;;;;;;;;;2140466;27;20067;-42
2022/07/31 04:01:05;;;;;;;;;;;;;;;;;;2140308;27;20006;-44
2022/07/31 04:02:06;;;;;;;;;;;;;;;;;;2140725;27;19946;-43
2022/07/31 04:03:07;;;;;;;;;;;;;;;;;;2140484;27;20292;-43
2022/07/31 04:04:08;;;;;;;;;;;;;;;;;;2140584;27;19927;-42
2022/07/31 04:05:09;;;;;;;;;;;;;;;;;;2140592;27;20013;-45
2022/07/31 04:06:10;;;;;;;;;;;;;;;;;;2140490;27;19922;-42
2022/07/31 04:07:11;;;;;;;;;;;;;;;;;;2140400;27;20371;-42
2022/07/31 04:08:14;;;;;;;;;;;;;;;;;;2140709;27;19974;-43
2022/07/31 04:09:15;;;;;;;;;;;;;;;;;;2140536;27;19945;-42
2022/07/31 04:10:19;;;;;;;;;;;;;;;;;;2140474;27;19923;-42
2022/07/31 04:11:20;;;;;;;;;;;;;;;;;;2136910;27;20021;-45
2022/07/31 04:12:21;;;;;;;;;;;;;;;;;;2132303;27;20010;-42
2022/07/31 04:13:22;;;;;;;;;;;;;;;;;;2132052;27;19966;-44
2022/07/31 04:14:23;;;;;;;;;;;;;;;;;;2132129;27;20014;-44
2022/07/31 04:15:23;;;;;;;;;;;;;;;;;;2132155;27;19923;-44
2022/07/31 04:16:25;;;;;;;;;;;;;;;;;;2131669;27;20399;-44
2022/07/31 04:17:25;;;;;;;;;;;;;;;;;;2132362;27;20056;-45
2022/07/31 04:18:26;;;;;;;;;;;;;;;;;;2132092;27;20317;-44
2022/07/31 04:19:29;;;;;;;;;;;;;;;;;;2132245;27;20009;-42
2022/07/31 04:20:30;;;;;;;;;;;;;;;;;;2131888;27;19967;-42
2022/07/31 04:21:31;;;;;;;;;;;;;;;;;;2132067;27;20018;-42
2022/07/31 04:22:32;;;;;;;;;;;;;;;;;;2132250;27;19927;-43
2022/07/31 04:23:33;;;;;;;;;;;;;;;;;;2131588;27;20325;-42
2022/07/31 04:24:34;;;;;;;;;;;;;;;;;;2131782;27;19923;-43
2022/07/31 04:25:34;;;;;;;;;;;;;;;;;;2131636;27;19924;-42
2022/07/31 04:26:35;;;;;;;;;;;;;;;;;;2131515;27;19923;-42
2022/07/31 04:27:36;;;;;;;;;;;;;;;;;;2131639;27;19957;-42
2022/07/31 04:28:48;;;;;;;;;;;;;;;;;;2132159;27;19982;-44
2022/07/31 04:29:49;;;;;;;;;;;;;;;;;;2132258;27;20399;-43
2022/07/31 04:30:50;;;;;;;;;;;;;;;;;;2132201;27;19923;-44
2022/07/31 04:31:51;;;;;;;;;;;;;;;;;;2131490;27;20410;-46
2022/07/31 04:32:52;;;;;;;;;;;;;;;;;;2132211;27;19931;-43
2022/07/31 04:33:53;;;;;;;;;;;;;;;;;;2131568;27;19923;-43
2022/07/31 04:34:57;;;;;;;;;;;;;;;;;;2131500;27;20400;-43
2022/07/31 04:35:58;;;;;;;;;;;;;;;;;;2131778;27;20011;-44
2022/07/31 04:36:59;;;;;;;;;;;;;;;;;;2131518;27;20395;-44
2022/07/31 04:37:59;;;;;;;;;;;;;;;;;;2131793;27;19955;-46
2022/07/31 04:39:01;;;;;;;;;;;;;;;;;;2139390;27;19923;-44
2022/07/31 04:40:01;;;;;;;;;;;;;;;;;;2141057;27;19923;-43
2022/07/31 04:41:02;;;;;;;;;;;;;;;;;;2140304;27;20026;-45
2022/07/31 04:42:03;;;;;;;;;;;;;;;;;;2140364;27;20398;-44
2022/07/31 04:43:04;;;;;;;;;;;;;;;;;;2140492;27;19923;-45
2022/07/31 04:44:05;;;;;;;;;;;;;;;;;;2140185;27;19930;-44
2022/07/31 04:45:07;;;;;;;;;;;;;;;;;;2140284;27;19923;-44
2022/07/31 04:46:08;;;;;;;;;;;;;;;;;;2140006;27;19934;-44
2022/07/31 04:47:17;;;;;;;;;;;;;;;;;;2140197;27;20370;-44
2022/07/31 04:48:18;;;;;;;;;;;;;;;;;;2140429;27;19969;-44
2022/07/31 04:49:19;;;;;;;;;;;;;;;;;;2140327;27;19930;-44
2022/07/31 04:50:20;;;;;;;;;;;;;;;;;;2140108;27;19971;-45
2022/07/31 04:51:21;;;;;;;;;;;;;;;;;;2140127;27;19923;-44
2022/07/31 04:52:22;;;;;;;;;;;;;;;;;;2140073;27;20470;-44
2022/07/31 04:53:23;;;;;;;;;;;;;;;;;;2140107;27;19923;-45
2022/07/31 04:54:24;;;;;;;;;;;;;;;;;;2139931;27;20344;-44
2022/07/31 04:55:25;;;;;;;;;;;;;;;;;;2140131;27;19972;-45
2022/07/31 04:56:36;;;;;;;;;;;;;;;;;;2140037;27;20466;-45
2022/07/31 04:57:37;;;;;;;;;;;;;;;;;;2140177;27;19923;-43
2022/07/31 04:58:38;;;;;;;;;;;;;;;;;;2140244;27;20099;-43
2022/07/31 04:59:39;;;;;;;;;;;;;;;;;;2140520;27;20126;-44
2022/07/31 05:01:00;;;;;;;;;;;;;;;;;;2140079;27;19923;-42
2022/07/31 05:02:00;;;;;;;;;;;;;;;;;;2140277;27;19929;-42
2022/07/31 05:03:02;;;;;;;;;;;;;;;;;;2140054;27;19965;-42
2022/07/31 05:04:03;;;;;;;;;;;;;;;;;;2140045;27;19933;-42
2022/07/31 05:05:04;;;;;;;;;;;;;;;;;;2140112;27;19976;-43
2022/07/31 05:06:04;;;;;;;;;;;;;;;;;;2139968;27;19965;-43
2022/07/31 05:07:05;;;;;;;;;;;;;;;;;;2139984;27;19923;-44
2022/07/31 05:08:06;;;;;;;;;;;;;;;;;;2140092;27;20002;-43
2022/07/31 05:09:07;;;;;;;;;;;;;;;;;;2140048;27;19997;-43
2022/07/31 05:11:21;;;;;;;;;;;;;;;;;;2140457;27;20314;-45
2022/07/31 05:11:31;;;;;;;;;;;;;;;;;;2135205;27;20336;-45
2022/07/31 05:12:32;;;;;;;;;;;;;;;;;;2131444;27;19940;-45
2022/07/31 05:13:33;;;;;;;;;;;;;;;;;;2131428;27;20528;-46
2022/07/31 05:14:34;;;;;;;;;;;;;;;;;;2131504;27;19949;-45
2022/07/31 05:15:35;;;;;;;;;;;;;;;;;;2131696;27;20055;-43
2022/07/31 05:16:36;;;;;;;;;;;;;;;;;;2132127;27;19976;-44
2022/07/31 05:17:38;;;;;;;;;;;;;;;;;;2131320;27;19924;-44
2022/07/31 05:18:38;;;;;;;;;;;;;;;;;;2132139;27;20022;-45
2022/07/31 05:19:39;;;;;;;;;;;;;;;;;;2131431;27;20398;-45
2022/07/31 05:20:40;;;;;;;;;;;;;;;;;;2131680;27;19961;-48
2022/07/31 05:21:41;;;;;;;;;;;;;;;;;;2131530;27;19963;-46
2022/07/31 05:22:47;;;;;;;;;;;;;;;;;;2131383;27;20375;-45
2022/07/31 05:23:48;;;;;;;;;;;;;;;;;;2131391;27;20010;-46
2022/07/31 05:24:49;;;;;;;;;;;;;;;;;;2131407;27;19934;-46
2022/07/31 05:25:50;;;;;;;;;;;;;;;;;;2131422;27;19927;-45
2022/07/31 05:26:51;;;;;;;;;;;;;;;;;;2131443;27;20430;-45
2022/07/31 05:27:51;;;;;;;;;;;;;;;;;;2131676;27;19996;-49
2022/07/31 05:28:52;;;;;;;;;;;;;;;;;;2131517;27;19931;-45
2022/07/31 05:29:58;;;;;;;;;;;;;;;;;;2132671;27;19927;-46
2022/07/31 05:30:59;;;;;;;;;;;;;;;;;;2131863;27;20280;-45
2022/07/31 05:32:00;;;;;;;;;;;;;;;;;;2131848;27;19924;-44
2022/07/31 05:33:01;;;;;;;;;;;;;;;;;;2132181;27;19923;-44
2022/07/31 05:34:02;;;;;;;;;;;;;;;;;;2132828;27;19926;-43
2022/07/31 05:35:03;;;;;;;;;;;;;;;;;;2138721;27;20010;-46
2022/07/31 05:36:04;;;;;;;;;;;;;;;;;;2141585;27;20428;-44
2022/07/31 05:37:05;;;;;;;;;;;;;;;;;;2141320;27;19939;-43
2022/07/31 05:38:06;;;;;;;;;;;;;;;;;;2141616;27;20399;-46
2022/07/31 05:39:08;;;;;;;;;;;;;;;;;;2141686;27;19923;-46
2022/07/31 05:40:09;;;;;;;;;;;;;;;;;;2141712;27;20009;-45
2022/07/31 05:41:10;;;;;;;;;;;;;;;;;;2142024;27;19945;-44
2022/07/31 05:42:11;;;;;;;;;;;;;;;;;;2141372;27;20009;-44
2022/07/31 05:43:12;;;;;;;;;;;;;;;;;;2141647;27;20006;-45
2022/07/31 05:44:13;;;;;;;;;;;;;;;;;;2141316;27;19923;-45
2022/07/31 05:45:13;;;;;;;;;;;;;;;;;;2141305;27;20013;-46
2022/07/31 05:46:16;;;;;;;;;;;;;;;;;;2141254;27;20014;-44
2022/07/31 05:47:16;;;;;;;;;;;;;;;;;;2142089;27;20013;-43
2022/07/31 05:48:17;;;;;;;;;;;;;;;;;;2141841;27;19923;-45
2022/07/31 05:49:18;;;;;;;;;;;;;;;;;;2141384;27;20061;-45
2022/07/31 05:50:20;;;;;;;;;;;;;;;;;;2141320;27;20059;-45
2022/07/31 05:51:21;;;;;;;;;;;;;;;;;;2141447;27;20001;-46
2022/07/31 05:52:22;;;;;;;;;;;;;;;;;;2141606;27;20027;-45
2022/07/31 05:53:23;;;;;;;;;;;;;;;;;;2141661;27;20061;-43
2022/07/31 05:54:24;;;;;;;;;;;;;;;;;;2141218;27;20042;-43
2022/07/31 05:55:25;;;;;;;;;;;;;;;;;;2141250;27;19923;-43
2022/07/31 05:56:26;;;;;;;;;;;;;;;;;;2141224;27;20401;-43
2022/07/31 05:57:27;;;;;;;;;;;;;;;;;;2141437;27;20581;-45
2022/07/31 05:58:33;;;;;;;;;;;;;;;;;;2142177;27;19922;-43
2022/07/31 05:59:34;;;;;;;;;;;;;;;;;;2141831;27;20009;-45
2022/07/31 06:00:35;;;;;;;;;;;;;;;;;;2142008;27;19923;-45
2022/07/31 06:01:37;;;;;;;;;;;;;;;;;;2142892;27;19966;-43
2022/07/31 06:02:39;;;;;;;;;;;;;;;;;;2141555;27;19933;-45
2022/07/31 06:03:40;;;;;;;;;;;;;;;;;;2141501;27;19930;-44
2022/07/31 06:04:52;;;;;;;;;;;;;;;;;;2141337;27;19931;-44
2022/07/31 06:05:53;;;;;;;;;;;;;;;;;;2141760;27;19974;-43
2022/07/31 06:06:54;;;;;;;;;;;;;;;;;;2141392;27;20441;-43
2022/07/31 06:07:55;;;;;;;;;;;;;;;;;;2141656;27;20038;-44
2022/07/31 06:08:56;;;;;;;;;;;;;;;;;;2141438;27;19922;-44
2022/07/31 06:10:03;;;;;;;;;;;;;;;;;;2142019;27;19930;-42
2022/07/31 06:11:04;;;;;;;;;;;;;;;;;;2139691;27;19945;-42
2022/07/31 06:12:05;;;;;;;;;;;;;;;;;;2133176;27;19966;-44
2022/07/31 06:13:07;;;;;;;;;;;;;;;;;;2132492;27;20040;-44
2022/07/31 06:14:08;;;;;;;;;;;;;;;;;;2132616;27;19923;-44
2022/07/31 06:15:09;;;;;;;;;;;;;;;;;;2132535;27;20363;-44
2022/07/31 06:16:10;;;;;;;;;;;;;;;;;;2132435;27;19930;-44
2022/07/31 06:17:11;;;;;;;;;;;;;;;;;;2132639;27;20264;-43
2022/07/31 06:18:11;;;;;;;;;;;;;;;;;;2132748;27;20030;-46
2022/07/31 06:19:12;;;;;;;;;;;;;;;;;;2132836;27;19927;-42
2022/07/31 06:20:13;;;;;;;;;;;;;;;;;;2133077;27;19969;-42
2022/07/31 06:21:15;;;;;;;;;;;;;;;;;;2132613;27;20398;-45
2022/07/31 06:22:15;;;;;;;;;;;;;;;;;;2137936;27;19991;-45
2022/07/31 06:23:16;;;;;;;;;;;;;;;;;;2141199;27;20358;-44
2022/07/31 06:24:24;;;;;;;;;;;;;;;;;;2141245;27;19930;-43
2022/07/31 06:25:25;;;;;;;;;;;;;;;;;;2141285;27;20396;-45
2022/07/31 06:26:32;;;;;;;;;;;;;;;;;;2140952;27;19930;-44
2022/07/31 06:27:33;;;;;;;;;;;;;;;;;;2141172;27;20018;-43
2022/07/31 06:28:35;;;;;;;;;;;;;;;;;;2141243;27;19922;-43
2022/07/31 06:29:48;;;;;;;;;;;;;;;;;;2141266;27;19946;-43
2022/07/31 06:30:49;;;;;;;;;;;;;;;;;;2140982;27;20371;-45
2022/07/31 06:31:49;;;;;;;;;;;;;;;;;;2140797;27;19927;-45
2022/07/31 06:32:50;;;;;;;;;;;;;;;;;;2141378;27;19962;-45
2022/07/31 06:33:51;;;;;;;;;;;;;;;;;;2140975;27;20302;-48
2022/07/31 06:34:53;;;;;;;;;;;;;;;;;;2141497;27;19931;-45
2022/07/31 06:35:54;;;;;;;;;;;;;;;;;;2141388;27;19923;-44
2022/07/31 06:36:55;;;;;;;;;;;;;;;;;;2141091;27;20017;-43
2022/07/31 06:37:56;;;;;;;;;;;;;;;;;;2141240;27;19923;-46
2022/07/31 06:38:57;;;;;;;;;;;;;;;;;;2141323;27;19969;-43
2022/07/31 06:39:58;;;;;;;;;;;;;;;;;;2141334;27;19923;-46
2022/07/31 06:40:59;;;;;;;;;;;;;;;;;;2140910;27;19975;-45
2022/07/31 06:41:59;;;;;;;;;;;;;;;;;;2141189;27;20013;-45
2022/07/31 06:43:01;;;;;;;;;;;;;;;;;;2141125;27;20368;-44
2022/07/31 06:44:06;;;;;;;;;;;;;;;;;;2141087;27;19923;-43
2022/07/31 06:45:07;;;;;;;;;;;;;;;;;;2141463;27;20500;-46
2022/07/31 06:46:08;;;;;;;;;;;;;;;;;;2141222;27;19923;-46
2022/07/31 06:47:09;;;;;;;;;;;;;;;;;;2141148;27;19922;-45
2022/07/31 06:48:16;;;;;;;;;;;;;;;;;;2140951;27;19982;-44
2022/07/31 06:49:17;;;;;;;;;;;;;;;;;;2140888;27;20426;-44
2022/07/31 06:50:18;;;;;;;;;;;;;;;;;;2141075;27;19923;-44
2022/07/31 06:51:19;;;;;;;;;;;;;;;;;;2140914;27;20468;-45
2022/07/31 06:52:36;;;;;;;;;;;;;;;;;;2141136;27;20275;-44
2022/07/31 06:53:37;;;;;;;;;;;;;;;;;;2141113;27;20091;-46
2022/07/31 06:54:38;;;;;;;;;;;;;;;;;;2141191;27;19930;-47
2022/07/31 06:55:39;;;;;;;;;;;;;;;;;;2141222;27;20002;-45
2022/07/31 06:56:44;;;;;;;;;;;;;;;;;;2141005;27;19954;-45
2022/07/31 06:57:45;;;;;;;;;;;;;;;;;;2140950;27;20003;-43
2022/07/31 06:58:46;;;;;;;;;;;;;;;;;;2140815;27;20279;-43
2022/07/31 06:59:47;;;;;;;;;;;;;;;;;;2140987;27;19927;-44
2022/07/31 07:00:47;;;;;;;;;;;;;;;;;;2140778;27;20299;-43
2022/07/31 07:01:48;;;;;;;;;;;;;;;;;;2140758;27;19927;-44
2022/07/31 07:02:50;;;;;;;;;;;;;;;;;;2141416;27;19930;-44